Time,TemperatureF,DewpointF,PressureIn,WindDirection,WindDirectionDegrees,WindSpeedMPH,WindSpeedGustMPH,Humidity,HourlyPrecipIn,Conditions,Clouds,dailyrainin,SoftwareType,DateUTC
2013-10-23 00:29:00,36.2,32.4,29.66,SW,232,2.0,4.0,86,0.00,,---,0.00,VWS V14.00,2013-10-23 04:29:00,
2013-10-23 00:59:00,35.9,32.4,29.66,SE,130,0.0,2.0,87,0.00,,---,0.00,VWS V14.00,2013-10-23 04:59:00,
2013-10-23 01:29:00,36.5,32.7,29.66,SSW,200,1.0,1.0,86,0.00,,---,0.00,VWS V14.00,2013-10-23 05:29:00,
2013-10-23 01:59:00,35.6,31.8,29.67,SSW,196,0.0,0.0,86,0.00,,---,0.00,VWS V14.00,2013-10-23 05:59:00,
2013-10-23 02:29:00,34.8,31.3,29.67,ENE,74,0.0,1.0,87,0.00,,---,0.00,VWS V14.00,2013-10-23 06:29:00,
2013-10-23 02:59:00,34.4,31.8,29.66,East,84,1.0,1.0,90,0.00,,---,0.00,VWS V14.00,2013-10-23 06:59:00,
2013-10-23 03:29:00,35.3,33.2,29.66,SSW,198,0.0,1.0,92,0.00,,---,0.00,VWS V14.00,2013-10-23 07:29:00,
2013-10-23 03:59:00,36.3,33.9,29.66,ESE,103,0.0,1.0,91,0.00,,---,0.00,VWS V14.00,2013-10-23 07:59:00,
2013-10-23 04:29:00,36.9,34.5,29.66,ESE,102,0.0,1.0,91,0.00,,---,0.00,VWS V14.00,2013-10-23 08:29:00,
2013-10-23 04:59:00,37.1,34.7,29.66,NE,49,0.0,1.0,91,0.00,,---,0.00,VWS V14.00,2013-10-23 08:59:00,
2013-10-23 05:29:00,36.9,34.2,29.67,West,274,0.0,3.0,90,0.00,,---,0.00,VWS V14.00,2013-10-23 09:29:00,
2013-10-23 05:59:00,37.2,34.5,29.66,East,93,0.0,0.0,90,0.00,,---,0.00,VWS V14.00,2013-10-23 09:59:00,
2013-10-23 06:29:00,36.2,33.8,29.66,ESE,115,0.0,0.0,91,0.00,,---,0.00,VWS V14.00,2013-10-23 10:29:00,
2013-10-23 06:59:00,36.4,33.8,29.67,ESE,119,0.0,0.0,90,0.00,,---,0.00,VWS V14.00,2013-10-23 10:59:00,
2013-10-23 07:29:00,36.1,33.2,29.67,NNE,13,0.0,0.0,89,0.00,,---,0.00,VWS V14.00,2013-10-23 11:29:00,
2013-10-23 07:59:00,36.0,33.6,29.68,NW,305,1.0,2.0,91,0.00,,---,0.00,VWS V14.00,2013-10-23 11:59:00,
2013-10-23 08:29:00,35.7,33.6,29.68,WNW,302,0.0,0.0,92,0.00,,---,0.00,VWS V14.00,2013-10-23 12:29:00,
2013-10-23 08:59:00,36.1,33.7,29.69,NW,323,3.0,5.0,91,0.00,,---,0.00,VWS V14.00,2013-10-23 12:59:00,
2013-10-23 09:29:00,37.1,34.2,29.68,SW,227,0.0,3.0,89,0.00,,---,0.00,VWS V14.00,2013-10-23 13:29:00,
2013-10-23 09:59:00,37.5,33.4,29.68,WSW,243,3.0,4.0,85,0.00,,---,0.00,VWS V14.00,2013-10-23 13:59:00,
2013-10-23 10:29:00,40.9,33.9,29.69,WNW,286,4.0,4.0,76,0.00,,---,0.00,VWS V14.00,2013-10-23 14:29:00,
2013-10-23 10:59:00,44.4,34.9,29.68,WSW,250,2.0,3.0,69,0.00,,---,0.00,VWS V14.00,2013-10-23 14:59:00,
2013-10-23 11:29:00,41.2,33.2,29.68,East,80,2.0,2.0,73,0.00,,---,0.00,VWS V14.00,2013-10-23 15:29:00,
2013-10-23 11:59:00,44.8,34.2,29.68,WNW,290,2.0,7.0,66,0.00,,---,0.00,VWS V14.00,2013-10-23 15:59:00,
2013-10-23 12:29:00,41.9,32.8,29.67,ESE,102,0.0,2.0,70,0.00,,---,0.00,VWS V14.00,2013-10-23 16:29:00,
2013-10-23 12:59:00,42.2,31.3,29.66,South,190,2.0,3.0,65,0.00,,---,0.00,VWS V14.00,2013-10-23 16:59:00,
2013-10-23 13:29:00,44.5,31.9,29.64,SE,142,1.0,5.0,61,0.00,,---,0.00,VWS V14.00,2013-10-23 17:29:00,
2013-10-23 13:59:00,42.8,31.1,29.64,SSE,152,2.0,2.0,63,0.00,,---,0.00,VWS V14.00,2013-10-23 17:59:00,
2013-10-23 14:29:00,42.0,31.1,29.63,NNE,18,1.0,2.0,65,0.00,,---,0.00,VWS V14.00,2013-10-23 18:29:00,
2013-10-23 14:59:00,42.0,29.9,29.62,SSE,156,1.0,6.0,62,0.00,,---,0.00,VWS V14.00,2013-10-23 18:59:00,
2013-10-23 15:29:00,43.6,30.6,29.62,East,97,1.0,2.0,60,0.00,,---,0.00,VWS V14.00,2013-10-23 19:29:00,
2013-10-23 15:59:00,42.8,31.1,29.62,East,80,2.0,2.0,63,0.00,,---,0.00,VWS V14.00,2013-10-23 19:59:00,
2013-10-23 16:29:00,42.4,31.5,29.62,East,81,0.0,2.0,65,0.00,,---,0.00,VWS V14.00,2013-10-23 20:29:00,
2013-10-23 16:59:00,41.5,30.6,29.62,WSW,242,2.0,3.0,65,0.00,,---,0.00,VWS V14.00,2013-10-23 20:59:00,
2013-10-23 17:29:00,40.7,30.6,29.63,NNE,28,0.0,1.0,67,0.00,,---,0.00,VWS V14.00,2013-10-23 21:29:00,
2013-10-23 17:59:00,39.8,30.1,29.64,North,9,0.0,0.0,68,0.00,,---,0.00,VWS V14.00,2013-10-23 21:59:00,
2013-10-23 18:29:00,38.0,29.1,29.64,NE,35,3.0,3.0,70,0.00,,---,0.00,VWS V14.00,2013-10-23 22:29:00,
2013-10-23 18:59:00,37.2,29.4,29.64,North,9,0.0,0.0,73,0.00,,---,0.00,VWS V14.00,2013-10-23 22:59:00,
2013-10-23 19:29:00,36.1,28.6,29.64,North,11,2.0,2.0,74,0.00,,---,0.00,VWS V14.00,2013-10-23 23:29:00,
2013-10-23 19:59:00,35.3,28.8,29.64,East,88,0.0,0.0,77,0.00,,---,0.00,VWS V14.00,2013-10-23 23:59:00,
2013-10-23 20:29:00,34.9,28.1,29.64,East,88,0.0,0.0,76,0.00,,---,0.00,VWS V14.00,2013-10-24 00:29:00,
2013-10-23 20:59:00,34.4,28.0,29.64,East,88,0.0,0.0,77,0.00,,---,0.00,VWS V14.00,2013-10-24 00:59:00,
2013-10-23 21:29:00,33.8,27.7,29.63,East,88,0.0,0.0,78,0.00,,---,0.00,VWS V14.00,2013-10-24 01:29:00,
2013-10-23 21:59:00,33.5,28.6,29.63,East,88,0.0,0.0,82,0.00,,---,0.00,VWS V14.00,2013-10-24 01:59:00,
2013-10-23 22:29:00,34.3,29.4,29.63,East,88,0.0,0.0,82,0.00,,---,0.00,VWS V14.00,2013-10-24 02:29:00,
2013-10-23 22:59:00,32.8,28.5,29.63,SW,228,2.0,5.0,84,0.00,,---,0.00,VWS V14.00,2013-10-24 02:59:00,
2013-10-23 23:29:00,32.3,28.0,29.63,NNE,27,0.0,1.0,84,0.00,,---,0.00,VWS V14.00,2013-10-24 03:29:00,
2013-10-23 23:59:00,32.4,27.8,29.62,NW,315,0.0,0.0,83,0.00,,---,0.00,VWS V14.00,2013-10-24 03:59:00,